sensor_id;sensor_type;location;lat;lon;timestamp;temperature;humidity
23251;DHT22;11794;49.730;10.088;2022-07-24T00:00:50;19.40;99.90
23251;DHT22;11794;49.730;10.088;2022-07-24T00:03:15;19.40;99.90
23251;DHT22;11794;49.730;10.088;2022-07-24T00:05:41;19.30;99.90
23251;DHT22;11794;49.730;10.088;2022-07-24T00:08:06;19.20;99.90
23251;DHT22;11794;49.730;10.088;2022-07-24T00:10:32;19.20;99.90
23251;DHT22;11794;49.730;10.088;2022-07-24T00:12:58;19.20;99.90
23251;DHT22;11794;49.730;10.088;2022-07-24T00:15:23;19.20;99.90
23251;DHT22;11794;49.730;10.088;2022-07-24T00:17:49;19.10;99.90
23251;DHT22;11794;49.730;10.088;2022-07-24T00:20:14;19.00;99.90
23251;DHT22;11794;49.730;10.088;2022-07-24T00:22:40;19.00;99.90
23251;DHT22;11794;49.730;10.088;2022-07-24T00:25:06;18.80;99.90
23251;DHT22;11794;49.730;10.088;2022-07-24T00:27:31;18.80;99.90
23251;DHT22;11794;49.730;10.088;2022-07-24T00:29:57;18.80;99.90
23251;DHT22;11794;49.730;10.088;2022-07-24T00:32:22;18.70;99.90
23251;DHT22;11794;49.730;10.088;2022-07-24T00:34:48;18.70;99.90
23251;DHT22;11794;49.730;10.088;2022-07-24T00:37:13;18.70;99.90
23251;DHT22;11794;49.730;10.088;2022-07-24T00:39:39;18.60;99.90
23251;DHT22;11794;49.730;10.088;2022-07-24T00:42:04;18.60;99.90
23251;DHT22;11794;49.730;10.088;2022-07-24T00:44:30;18.60;99.90
23251;DHT22;11794;49.730;10.088;2022-07-24T00:46:56;18.50;99.90
23251;DHT22;11794;49.730;10.088;2022-07-24T00:49:21;18.40;99.90
23251;DHT22;11794;49.730;10.088;2022-07-24T00:51:50;18.40;99.90
23251;DHT22;11794;49.730;10.088;2022-07-24T00:54:17;18.40;99.90
23251;DHT22;11794;49.730;10.088;2022-07-24T00:56:44;18.30;99.90
23251;DHT22;11794;49.730;10.088;2022-07-24T00:59:11;18.30;99.90
23251;DHT22;11794;49.730;10.088;2022-07-24T01:01:37;18.20;99.90
23251;DHT22;11794;49.730;10.088;2022-07-24T01:04:03;18.10;99.90
23251;DHT22;11794;49.730;10.088;2022-07-24T01:06:29;18.10;99.90
23251;DHT22;11794;49.730;10.088;2022-07-24T01:08:55;18.00;99.90
23251;DHT22;11794;49.730;10.088;2022-07-24T01:11:23;18.00;99.90
23251;DHT22;11794;49.730;10.088;2022-07-24T01:13:50;18.00;99.90
23251;DHT22;11794;49.730;10.088;2022-07-24T01:16:16;18.00;99.90
23251;DHT22;11794;49.730;10.088;2022-07-24T01:18:42;18.00;99.90
23251;DHT22;11794;49.730;10.088;2022-07-24T01:21:08;18.00;99.90
23251;DHT22;11794;49.730;10.088;2022-07-24T01:23:34;18.10;99.90
23251;DHT22;11794;49.730;10.088;2022-07-24T01:26:00;18.10;99.90
23251;DHT22;11794;49.730;10.088;2022-07-24T01:28:26;18.10;99.90
23251;DHT22;11794;49.730;10.088;2022-07-24T01:30:51;18.10;99.90
23251;DHT22;11794;49.730;10.088;2022-07-24T01:33:17;18.10;99.90
23251;DHT22;11794;49.730;10.088;2022-07-24T01:35:43;18.10;99.90
23251;DHT22;11794;49.730;10.088;2022-07-24T01:38:10;18.10;99.90
23251;DHT22;11794;49.730;10.088;2022-07-24T01:40:35;18.10;99.90
23251;DHT22;11794;49.730;10.088;2022-07-24T01:43:01;18.20;99.90
23251;DHT22;11794;49.730;10.088;2022-07-24T01:45:27;18.20;99.90
23251;DHT22;11794;49.730;10.088;2022-07-24T01:47:53;18.20;99.90
23251;DHT22;11794;49.730;10.088;2022-07-24T01:50:18;18.20;99.90
23251;DHT22;11794;49.730;10.088;2022-07-24T01:52:44;18.10;99.90
23251;DHT22;11794;49.730;10.088;2022-07-24T01:55:10;18.20;99.90
23251;DHT22;11794;49.730;10.088;2022-07-24T01:57:36;18.30;99.90
23251;DHT22;11794;49.730;10.088;2022-07-24T02:00:02;18.30;99.90
23251;DHT22;11794;49.730;10.088;2022-07-24T02:02:28;18.30;99.90
23251;DHT22;11794;49.730;10.088;2022-07-24T02:04:54;18.40;99.90
23251;DHT22;11794;49.730;10.088;2022-07-24T02:07:19;18.30;99.90
23251;DHT22;11794;49.730;10.088;2022-07-24T02:09:45;18.30;99.90
23251;DHT22;11794;49.730;10.088;2022-07-24T02:12:11;18.40;99.90
23251;DHT22;11794;49.730;10.088;2022-07-24T02:14:37;18.40;99.90
23251;DHT22;11794;49.730;10.088;2022-07-24T02:17:03;18.40;99.90
23251;DHT22;11794;49.730;10.088;2022-07-24T02:19:29;18.30;99.90
23251;DHT22;11794;49.730;10.088;2022-07-24T02:21:55;18.30;99.90
23251;DHT22;11794;49.730;10.088;2022-07-24T02:24:21;18.30;99.90
23251;DHT22;11794;49.730;10.088;2022-07-24T02:26:47;18.30;99.90
23251;DHT22;11794;49.730;10.088;2022-07-24T02:29:13;18.20;99.90
23251;DHT22;11794;49.730;10.088;2022-07-24T02:31:38;18.20;99.90
23251;DHT22;11794;49.730;10.088;2022-07-24T02:34:04;18.10;99.90
23251;DHT22;11794;49.730;10.088;2022-07-24T02:36:29;18.20;99.90
23251;DHT22;11794;49.730;10.088;2022-07-24T02:38:55;18.20;99.90
23251;DHT22;11794;49.730;10.088;2022-07-24T02:41:20;18.20;99.90
23251;DHT22;11794;49.730;10.088;2022-07-24T02:43:46;18.20;99.90
23251;DHT22;11794;49.730;10.088;2022-07-24T02:46:12;18.10;99.90
23251;DHT22;11794;49.730;10.088;2022-07-24T02:48:37;18.10;99.90
23251;DHT22;11794;49.730;10.088;2022-07-24T02:51:03;18.10;99.90
23251;DHT22;11794;49.730;10.088;2022-07-24T02:53:29;18.10;99.90
23251;DHT22;11794;49.730;10.088;2022-07-24T02:55:55;18.10;99.90
23251;DHT22;11794;49.730;10.088;2022-07-24T02:58:20;18.00;99.90
23251;DHT22;11794;49.730;10.088;2022-07-24T03:00:46;17.90;99.90
23251;DHT22;11794;49.730;10.088;2022-07-24T03:03:11;17.80;99.90
23251;DHT22;11794;49.730;10.088;2022-07-24T03:05:37;17.80;99.90
23251;DHT22;11794;49.730;10.088;2022-07-24T03:08:03;17.80;99.90
23251;DHT22;11794;49.730;10.088;2022-07-24T03:10:28;17.80;99.90
23251;DHT22;11794;49.730;10.088;2022-07-24T03:12:54;17.80;99.90
23251;DHT22;11794;49.730;10.088;2022-07-24T03:15:20;17.80;99.90
23251;DHT22;11794;49.730;10.088;2022-07-24T03:17:50;17.80;99.90
23251;DHT22;11794;49.730;10.088;2022-07-24T03:20:16;17.70;99.90
23251;DHT22;11794;49.730;10.088;2022-07-24T03:22:43;17.60;99.90
23251;DHT22;11794;49.730;10.088;2022-07-24T03:25:08;17.50;99.90
23251;DHT22;11794;49.730;10.088;2022-07-24T03:27:34;17.50;99.90
23251;DHT22;11794;49.730;10.088;2022-07-24T03:30:00;17.40;99.90
23251;DHT22;11794;49.730;10.088;2022-07-24T03:32:25;17.30;99.90
23251;DHT22;11794;49.730;10.088;2022-07-24T03:34:50;17.30;99.90
23251;DHT22;11794;49.730;10.088;2022-07-24T03:37:16;17.30;99.90
23251;DHT22;11794;49.730;10.088;2022-07-24T03:39:41;17.30;99.90
23251;DHT22;11794;49.730;10.088;2022-07-24T03:42:07;17.30;99.90
23251;DHT22;11794;49.730;10.088;2022-07-24T03:44:33;17.30;99.90
23251;DHT22;11794;49.730;10.088;2022-07-24T03:46:58;17.40;99.90
23251;DHT22;11794;49.730;10.088;2022-07-24T03:49:24;17.50;99.90
23251;DHT22;11794;49.730;10.088;2022-07-24T03:51:49;17.50;99.90
23251;DHT22;11794;49.730;10.088;2022-07-24T03:54:15;17.50;99.90
23251;DHT22;11794;49.730;10.088;2022-07-24T03:56:42;17.60;99.90
23251;DHT22;11794;49.730;10.088;2022-07-24T03:59:07;17.60;99.90
23251;DHT22;11794;49.730;10.088;2022-07-24T04:01:33;17.60;99.90
23251;DHT22;11794;49.730;10.088;2022-07-24T04:03:58;17.60;99.90
23251;DHT22;11794;49.730;10.088;2022-07-24T04:06:30;17.60;99.90
23251;DHT22;11794;49.730;10.088;2022-07-24T04:08:57;17.50;99.90
23251;DHT22;11794;49.730;10.088;2022-07-24T04:11:22;17.60;99.90
23251;DHT22;11794;49.730;10.088;2022-07-24T04:13:48;17.60;99.90
23251;DHT22;11794;49.730;10.088;2022-07-24T04:16:13;17.60;99.90
23251;DHT22;11794;49.730;10.088;2022-07-24T04:18:39;17.70;99.90
23251;DHT22;11794;49.730;10.088;2022-07-24T04:21:04;17.70;99.90
23251;DHT22;11794;49.730;10.088;2022-07-24T04:23:30;17.80;99.90
23251;DHT22;11794;49.730;10.088;2022-07-24T04:25:55;17.80;99.90
23251;DHT22;11794;49.730;10.088;2022-07-24T04:28:21;17.80;99.90
23251;DHT22;11794;49.730;10.088;2022-07-24T04:30:46;17.80;99.90
23251;DHT22;11794;49.730;10.088;2022-07-24T04:33:12;17.90;99.90
23251;DHT22;11794;49.730;10.088;2022-07-24T04:35:37;17.90;99.90
23251;DHT22;11794;49.730;10.088;2022-07-24T04:38:03;18.00;99.90
23251;DHT22;11794;49.730;10.088;2022-07-24T04:40:28;17.90;99.90
23251;DHT22;11794;49.730;10.088;2022-07-24T04:42:54;18.00;99.90
23251;DHT22;11794;49.730;10.088;2022-07-24T04:45:19;18.10;99.90
23251;DHT22;11794;49.730;10.088;2022-07-24T04:47:45;18.20;99.90
23251;DHT22;11794;49.730;10.088;2022-07-24T04:50:11;18.20;99.90
23251;DHT22;11794;49.730;10.088;2022-07-24T04:52:36;18.20;99.90
23251;DHT22;11794;49.730;10.088;2022-07-24T04:55:02;18.30;99.90
23251;DHT22;11794;49.730;10.088;2022-07-24T04:57:28;18.30;99.90
23251;DHT22;11794;49.730;10.088;2022-07-24T04:59:53;18.40;99.90
23251;DHT22;11794;49.730;10.088;2022-07-24T05:02:19;18.60;99.90
23251;DHT22;11794;49.730;10.088;2022-07-24T05:04:44;18.70;99.90
23251;DHT22;11794;49.730;10.088;2022-07-24T05:07:10;18.80;99.90
23251;DHT22;11794;49.730;10.088;2022-07-24T05:09:36;18.80;99.90
23251;DHT22;11794;49.730;10.088;2022-07-24T05:12:02;18.90;99.90
23251;DHT22;11794;49.730;10.088;2022-07-24T05:14:28;19.00;99.90
23251;DHT22;11794;49.730;10.088;2022-07-24T05:16:53;19.10;99.90
23251;DHT22;11794;49.730;10.088;2022-07-24T05:19:19;19.20;99.90
23251;DHT22;11794;49.730;10.088;2022-07-24T05:21:44;19.30;99.90
23251;DHT22;11794;49.730;10.088;2022-07-24T05:24:10;19.40;99.90
23251;DHT22;11794;49.730;10.088;2022-07-24T05:26:36;19.40;99.90
23251;DHT22;11794;49.730;10.088;2022-07-24T05:29:03;19.40;99.90
23251;DHT22;11794;49.730;10.088;2022-07-24T05:31:31;19.40;99.90
23251;DHT22;11794;49.730;10.088;2022-07-24T05:33:57;19.50;99.90
23251;DHT22;11794;49.730;10.088;2022-07-24T05:36:24;19.50;99.90
23251;DHT22;11794;49.730;10.088;2022-07-24T05:38:49;19.50;99.90
23251;DHT22;11794;49.730;10.088;2022-07-24T05:41:15;19.50;99.90
23251;DHT22;11794;49.730;10.088;2022-07-24T05:43:41;19.50;99.90
23251;DHT22;11794;49.730;10.088;2022-07-24T05:46:06;19.50;99.90
23251;DHT22;11794;49.730;10.088;2022-07-24T05:48:32;19.50;99.90
23251;DHT22;11794;49.730;10.088;2022-07-24T05:50:58;19.50;99.90
23251;DHT22;11794;49.730;10.088;2022-07-24T05:53:23;19.60;99.90
23251;DHT22;11794;49.730;10.088;2022-07-24T05:55:50;19.70;99.90
23251;DHT22;11794;49.730;10.088;2022-07-24T05:58:15;19.80;99.90
23251;DHT22;11794;49.730;10.088;2022-07-24T06:00:41;19.80;99.90
23251;DHT22;11794;49.730;10.088;2022-07-24T06:03:07;20.00;99.90
23251;DHT22;11794;49.730;10.088;2022-07-24T06:05:33;20.10;99.90
23251;DHT22;11794;49.730;10.088;2022-07-24T06:07:58;20.10;99.90
23251;DHT22;11794;49.730;10.088;2022-07-24T06:10:24;20.10;99.90
23251;DHT22;11794;49.730;10.088;2022-07-24T06:12:49;20.30;99.90
23251;DHT22;11794;49.730;10.088;2022-07-24T06:15:15;20.40;99.90
23251;DHT22;11794;49.730;10.088;2022-07-24T06:17:41;20.40;99.90
23251;DHT22;11794;49.730;10.088;2022-07-24T06:20:08;20.50;99.90
23251;DHT22;11794;49.730;10.088;2022-07-24T06:22:34;20.60;99.90
23251;DHT22;11794;49.730;10.088;2022-07-24T06:25:00;20.60;99.90
23251;DHT22;11794;49.730;10.088;2022-07-24T06:27:25;20.70;99.90
23251;DHT22;11794;49.730;10.088;2022-07-24T06:29:51;20.80;99.90
23251;DHT22;11794;49.730;10.088;2022-07-24T06:32:16;20.90;99.90
23251;DHT22;11794;49.730;10.088;2022-07-24T06:34:42;20.90;99.90
23251;DHT22;11794;49.730;10.088;2022-07-24T06:37:07;21.00;99.90
23251;DHT22;11794;49.730;10.088;2022-07-24T06:39:33;21.10;99.90
23251;DHT22;11794;49.730;10.088;2022-07-24T06:41:58;21.20;99.90
23251;DHT22;11794;49.730;10.088;2022-07-24T06:44:24;21.40;99.90
23251;DHT22;11794;49.730;10.088;2022-07-24T06:46:50;21.60;99.90
23251;DHT22;11794;49.730;10.088;2022-07-24T06:49:16;21.80;99.90
23251;DHT22;11794;49.730;10.088;2022-07-24T06:51:41;22.00;99.90
23251;DHT22;11794;49.730;10.088;2022-07-24T06:54:07;22.20;99.90
23251;DHT22;11794;49.730;10.088;2022-07-24T06:56:32;22.50;99.90
23251;DHT22;11794;49.730;10.088;2022-07-24T06:58:58;22.60;99.90
23251;DHT22;11794;49.730;10.088;2022-07-24T07:01:25;22.80;99.90
23251;DHT22;11794;49.730;10.088;2022-07-24T07:03:52;22.90;99.90
23251;DHT22;11794;49.730;10.088;2022-07-24T07:06:18;23.00;99.90
23251;DHT22;11794;49.730;10.088;2022-07-24T07:08:43;23.00;99.90
23251;DHT22;11794;49.730;10.088;2022-07-24T07:11:09;22.80;99.90
23251;DHT22;11794;49.730;10.088;2022-07-24T07:13:35;22.90;99.90
23251;DHT22;11794;49.730;10.088;2022-07-24T07:16:00;23.10;99.90
23251;DHT22;11794;49.730;10.088;2022-07-24T07:18:26;23.20;99.90
23251;DHT22;11794;49.730;10.088;2022-07-24T07:20:51;23.30;99.90
23251;DHT22;11794;49.730;10.088;2022-07-24T07:23:23;23.40;99.90
23251;DHT22;11794;49.730;10.088;2022-07-24T07:25:49;23.50;99.90
23251;DHT22;11794;49.730;10.088;2022-07-24T07:28:15;23.70;99.90
23251;DHT22;11794;49.730;10.088;2022-07-24T07:30:41;23.80;99.90
23251;DHT22;11794;49.730;10.088;2022-07-24T07:33:06;23.90;99.90
23251;DHT22;11794;49.730;10.088;2022-07-24T07:35:32;24.20;99.90
23251;DHT22;11794;49.730;10.088;2022-07-24T07:37:57;24.60;99.90
23251;DHT22;11794;49.730;10.088;2022-07-24T07:40:25;24.50;99.90
23251;DHT22;11794;49.730;10.088;2022-07-24T07:42:50;24.60;99.90
23251;DHT22;11794;49.730;10.088;2022-07-24T07:45:16;24.70;99.90
23251;DHT22;11794;49.730;10.088;2022-07-24T07:47:41;25.00;99.90
23251;DHT22;11794;49.730;10.088;2022-07-24T07:50:07;25.20;99.90
23251;DHT22;11794;49.730;10.088;2022-07-24T07:52:33;25.40;99.90
23251;DHT22;11794;49.730;10.088;2022-07-24T07:54:58;25.90;99.90
23251;DHT22;11794;49.730;10.088;2022-07-24T07:57:24;26.60;99.90
23251;DHT22;11794;49.730;10.088;2022-07-24T07:59:50;26.90;99.90
23251;DHT22;11794;49.730;10.088;2022-07-24T08:02:15;27.20;99.90
23251;DHT22;11794;49.730;10.088;2022-07-24T08:04:41;27.50;99.40
23251;DHT22;11794;49.730;10.088;2022-07-24T08:07:07;28.10;98.80
23251;DHT22;11794;49.730;10.088;2022-07-24T08:09:32;28.50;97.00
23251;DHT22;11794;49.730;10.088;2022-07-24T08:11:58;28.90;96.20
23251;DHT22;11794;49.730;10.088;2022-07-24T08:14:23;29.10;96.00
23251;DHT22;11794;49.730;10.088;2022-07-24T08:16:49;29.50;95.30
23251;DHT22;11794;49.730;10.088;2022-07-24T08:19:14;29.50;94.40
23251;DHT22;11794;49.730;10.088;2022-07-24T08:21:40;29.30;94.90
23251;DHT22;11794;49.730;10.088;2022-07-24T08:24:06;29.30;94.90
23251;DHT22;11794;49.730;10.088;2022-07-24T08:26:31;29.30;95.40
23251;DHT22;11794;49.730;10.088;2022-07-24T08:28:58;29.50;94.70
23251;DHT22;11794;49.730;10.088;2022-07-24T08:31:25;29.70;94.10
23251;DHT22;11794;49.730;10.088;2022-07-24T08:33:51;30.00;93.80
23251;DHT22;11794;49.730;10.088;2022-07-24T08:36:16;30.10;92.40
23251;DHT22;11794;49.730;10.088;2022-07-24T08:38:42;30.50;93.30
23251;DHT22;11794;49.730;10.088;2022-07-24T08:41:07;30.60;92.20
23251;DHT22;11794;49.730;10.088;2022-07-24T08:43:33;30.40;92.20
23251;DHT22;11794;49.730;10.088;2022-07-24T08:45:59;30.80;92.50
23251;DHT22;11794;49.730;10.088;2022-07-24T08:48:27;30.90;92.70
23251;DHT22;11794;49.730;10.088;2022-07-24T08:50:53;31.10;91.90
23251;DHT22;11794;49.730;10.088;2022-07-24T08:53:21;31.50;90.90
23251;DHT22;11794;49.730;10.088;2022-07-24T08:55:47;31.60;91.20
23251;DHT22;11794;49.730;10.088;2022-07-24T08:58:12;32.00;90.70
23251;DHT22;11794;49.730;10.088;2022-07-24T09:00:38;32.00;89.60
23251;DHT22;11794;49.730;10.088;2022-07-24T09:03:04;31.90;89.90
23251;DHT22;11794;49.730;10.088;2022-07-24T09:05:29;32.10;90.10
23251;DHT22;11794;49.730;10.088;2022-07-24T09:08:16;32.40;88.00
23251;DHT22;11794;49.730;10.088;2022-07-24T09:11:02;32.60;86.80
23251;DHT22;11794;49.730;10.088;2022-07-24T09:13:33;32.70;87.80
23251;DHT22;11794;49.730;10.088;2022-07-24T09:16:23;32.90;85.70
23251;DHT22;11794;49.730;10.088;2022-07-24T09:18:51;33.20;85.90
23251;DHT22;11794;49.730;10.088;2022-07-24T09:21:26;33.00;85.30
23251;DHT22;11794;49.730;10.088;2022-07-24T09:23:52;32.90;82.80
23251;DHT22;11794;49.730;10.088;2022-07-24T09:26:17;33.20;84.60
23251;DHT22;11794;49.730;10.088;2022-07-24T09:28:52;33.20;82.50
23251;DHT22;11794;49.730;10.088;2022-07-24T09:31:18;33.30;80.90
23251;DHT22;11794;49.730;10.088;2022-07-24T09:33:46;33.00;82.40
23251;DHT22;11794;49.730;10.088;2022-07-24T09:36:14;33.10;80.50
23251;DHT22;11794;49.730;10.088;2022-07-24T09:38:48;33.20;76.30
23251;DHT22;11794;49.730;10.088;2022-07-24T09:41:19;33.20;78.20
23251;DHT22;11794;49.730;10.088;2022-07-24T09:43:45;33.40;80.40
23251;DHT22;11794;49.730;10.088;2022-07-24T09:46:21;33.90;78.70
23251;DHT22;11794;49.730;10.088;2022-07-24T09:48:54;33.90;78.40
23251;DHT22;11794;49.730;10.088;2022-07-24T09:51:20;33.30;76.70
23251;DHT22;11794;49.730;10.088;2022-07-24T09:53:51;33.60;75.20
23251;DHT22;11794;49.730;10.088;2022-07-24T09:56:19;33.60;78.30
23251;DHT22;11794;49.730;10.088;2022-07-24T10:01:16;34.50;74.30
23251;DHT22;11794;49.730;10.088;2022-07-24T10:03:43;34.50;76.90
23251;DHT22;11794;49.730;10.088;2022-07-24T10:06:14;34.60;75.90
23251;DHT22;11794;49.730;10.088;2022-07-24T10:08:43;34.80;75.70
23251;DHT22;11794;49.730;10.088;2022-07-24T10:11:09;35.10;76.30
23251;DHT22;11794;49.730;10.088;2022-07-24T10:13:35;35.10;76.50
23251;DHT22;11794;49.730;10.088;2022-07-24T10:18:48;35.60;72.00
23251;DHT22;11794;49.730;10.088;2022-07-24T10:21:28;35.70;72.30
23251;DHT22;11794;49.730;10.088;2022-07-24T10:26:48;35.80;71.50
23251;DHT22;11794;49.730;10.088;2022-07-24T10:29:24;35.90;74.60
23251;DHT22;11794;49.730;10.088;2022-07-24T10:31:54;35.80;74.00
23251;DHT22;11794;49.730;10.088;2022-07-24T10:39:28;36.00;68.40
23251;DHT22;11794;49.730;10.088;2022-07-24T10:42:05;35.80;71.20
23251;DHT22;11794;49.730;10.088;2022-07-24T10:44:31;36.00;71.20
23251;DHT22;11794;49.730;10.088;2022-07-24T10:47:00;35.90;68.80
23251;DHT22;11794;49.730;10.088;2022-07-24T10:49:47;36.20;69.40
23251;DHT22;11794;49.730;10.088;2022-07-24T10:52:28;35.90;69.00
23251;DHT22;11794;49.730;10.088;2022-07-24T11:00:33;37.20;67.50
23251;DHT22;11794;49.730;10.088;2022-07-24T11:03:22;36.80;69.20
23251;DHT22;11794;49.730;10.088;2022-07-24T11:06:11;36.10;66.00
23251;DHT22;11794;49.730;10.088;2022-07-24T11:08:40;35.60;70.30
23251;DHT22;11794;49.730;10.088;2022-07-24T11:18:40;36.00;66.70
23251;DHT22;11794;49.730;10.088;2022-07-24T11:21:06;36.40;66.50
23251;DHT22;11794;49.730;10.088;2022-07-24T11:23:32;36.60;65.80
23251;DHT22;11794;49.730;10.088;2022-07-24T11:29:16;36.50;64.40
23251;DHT22;11794;49.730;10.088;2022-07-24T11:31:44;36.40;65.30
23251;DHT22;11794;49.730;10.088;2022-07-24T11:34:10;36.00;63.80
23251;DHT22;11794;49.730;10.088;2022-07-24T11:36:39;35.60;67.20
23251;DHT22;11794;49.730;10.088;2022-07-24T11:39:05;36.10;67.40
23251;DHT22;11794;49.730;10.088;2022-07-24T11:41:46;36.80;63.20
23251;DHT22;11794;49.730;10.088;2022-07-24T11:44:22;37.60;62.10
23251;DHT22;11794;49.730;10.088;2022-07-24T11:46:48;37.10;61.20
23251;DHT22;11794;49.730;10.088;2022-07-24T11:49:14;36.80;61.80
23251;DHT22;11794;49.730;10.088;2022-07-24T11:51:48;36.40;63.40
23251;DHT22;11794;49.730;10.088;2022-07-24T11:54:15;35.80;64.00
23251;DHT22;11794;49.730;10.088;2022-07-24T11:56:45;35.90;63.80
23251;DHT22;11794;49.730;10.088;2022-07-24T11:59:31;35.60;63.90
23251;DHT22;11794;49.730;10.088;2022-07-24T12:02:07;35.20;65.80
23251;DHT22;11794;49.730;10.088;2022-07-24T12:04:33;35.20;65.40
23251;DHT22;11794;49.730;10.088;2022-07-24T12:07:00;36.00;62.30
23251;DHT22;11794;49.730;10.088;2022-07-24T12:09:26;36.40;64.20
23251;DHT22;11794;49.730;10.088;2022-07-24T12:11:52;36.50;62.70
23251;DHT22;11794;49.730;10.088;2022-07-24T12:14:20;36.90;61.30
23251;DHT22;11794;49.730;10.088;2022-07-24T12:16:55;37.40;61.70
23251;DHT22;11794;49.730;10.088;2022-07-24T12:19:22;38.10;59.30
23251;DHT22;11794;49.730;10.088;2022-07-24T12:21:51;37.40;58.00
23251;DHT22;11794;49.730;10.088;2022-07-24T12:24:18;37.00;57.90
23251;DHT22;11794;49.730;10.088;2022-07-24T12:26:53;36.20;61.10
23251;DHT22;11794;49.730;10.088;2022-07-24T12:29:20;35.50;63.40
23251;DHT22;11794;49.730;10.088;2022-07-24T12:31:46;35.10;64.30
23251;DHT22;11794;49.730;10.088;2022-07-24T12:34:12;34.60;64.30
23251;DHT22;11794;49.730;10.088;2022-07-24T12:36:38;35.10;66.20
23251;DHT22;11794;49.730;10.088;2022-07-24T12:39:05;35.60;63.90
23251;DHT22;11794;49.730;10.088;2022-07-24T12:41:31;36.50;63.40
23251;DHT22;11794;49.730;10.088;2022-07-24T12:44:05;37.60;59.80
23251;DHT22;11794;49.730;10.088;2022-07-24T12:46:31;38.40;58.20
23251;DHT22;11794;49.730;10.088;2022-07-24T12:49:03;39.20;59.60
23251;DHT22;11794;49.730;10.088;2022-07-24T12:51:52;40.10;56.50
23251;DHT22;11794;49.730;10.088;2022-07-24T12:54:29;40.90;56.70
23251;DHT22;11794;49.730;10.088;2022-07-24T12:57:15;39.00;55.10
23251;DHT22;11794;49.730;10.088;2022-07-24T12:59:43;37.10;57.70
23251;DHT22;11794;49.730;10.088;2022-07-24T13:02:22;36.00;60.50
23251;DHT22;11794;49.730;10.088;2022-07-24T13:04:54;35.80;62.90
23251;DHT22;11794;49.730;10.088;2022-07-24T13:07:21;35.90;61.00
23251;DHT22;11794;49.730;10.088;2022-07-24T13:09:49;36.40;61.60
23251;DHT22;11794;49.730;10.088;2022-07-24T13:12:15;37.50;59.70
23251;DHT22;11794;49.730;10.088;2022-07-24T13:14:41;38.90;61.00
23251;DHT22;11794;49.730;10.088;2022-07-24T13:17:09;39.10;57.20
23251;DHT22;11794;49.730;10.088;2022-07-24T13:19:36;40.50;57.50
23251;DHT22;11794;49.730;10.088;2022-07-24T13:22:02;40.30;54.40
23251;DHT22;11794;49.730;10.088;2022-07-24T13:24:28;39.80;54.20
23251;DHT22;11794;49.730;10.088;2022-07-24T13:26:55;40.00;55.80
23251;DHT22;11794;49.730;10.088;2022-07-24T13:29:21;40.10;54.30
23251;DHT22;11794;49.730;10.088;2022-07-24T13:31:47;40.10;53.80
23251;DHT22;11794;49.730;10.088;2022-07-24T13:34:12;39.90;53.40
23251;DHT22;11794;49.730;10.088;2022-07-24T13:36:38;39.60;54.80
23251;DHT22;11794;49.730;10.088;2022-07-24T13:39:05;40.30;55.10
23251;DHT22;11794;49.730;10.088;2022-07-24T13:41:31;41.40;54.80
23251;DHT22;11794;49.730;10.088;2022-07-24T13:43:57;42.20;52.50
23251;DHT22;11794;49.730;10.088;2022-07-24T13:46:22;42.20;52.40
23251;DHT22;11794;49.730;10.088;2022-07-24T13:48:49;42.30;53.40
23251;DHT22;11794;49.730;10.088;2022-07-24T13:51:14;40.80;52.80
23251;DHT22;11794;49.730;10.088;2022-07-24T13:53:40;39.50;55.10
23251;DHT22;11794;49.730;10.088;2022-07-24T13:56:07;39.40;53.60
23251;DHT22;11794;49.730;10.088;2022-07-24T13:58:33;40.50;55.20
23251;DHT22;11794;49.730;10.088;2022-07-24T14:01:04;41.70;54.00
23251;DHT22;11794;49.730;10.088;2022-07-24T14:03:29;42.30;52.50
23251;DHT22;11794;49.730;10.088;2022-07-24T14:05:55;41.80;51.50
23251;DHT22;11794;49.730;10.088;2022-07-24T14:08:21;41.30;53.40
23251;DHT22;11794;49.730;10.088;2022-07-24T14:10:46;40.80;51.80
23251;DHT22;11794;49.730;10.088;2022-07-24T14:13:12;40.40;53.70
23251;DHT22;11794;49.730;10.088;2022-07-24T14:15:37;40.30;52.80
23251;DHT22;11794;49.730;10.088;2022-07-24T14:18:03;39.80;53.50
23251;DHT22;11794;49.730;10.088;2022-07-24T14:20:29;38.90;52.70
23251;DHT22;11794;49.730;10.088;2022-07-24T14:22:54;37.30;54.90
23251;DHT22;11794;49.730;10.088;2022-07-24T14:25:20;36.80;56.50
23251;DHT22;11794;49.730;10.088;2022-07-24T14:27:46;36.60;54.70
23251;DHT22;11794;49.730;10.088;2022-07-24T14:30:12;36.20;56.40
23251;DHT22;11794;49.730;10.088;2022-07-24T14:32:37;35.70;56.80
23251;DHT22;11794;49.730;10.088;2022-07-24T14:35:04;35.40;58.40
23251;DHT22;11794;49.730;10.088;2022-07-24T14:37:33;35.10;57.30
23251;DHT22;11794;49.730;10.088;2022-07-24T14:39:59;34.50;56.80
23251;DHT22;11794;49.730;10.088;2022-07-24T14:42:24;34.10;58.60
23251;DHT22;11794;49.730;10.088;2022-07-24T14:44:50;33.80;58.60
23251;DHT22;11794;49.730;10.088;2022-07-24T14:47:16;34.00;59.10
23251;DHT22;11794;49.730;10.088;2022-07-24T14:49:41;33.90;58.10
23251;DHT22;11794;49.730;10.088;2022-07-24T14:52:07;33.60;59.60
23251;DHT22;11794;49.730;10.088;2022-07-24T14:54:32;33.30;59.30
23251;DHT22;11794;49.730;10.088;2022-07-24T14:56:58;33.10;59.30
23251;DHT22;11794;49.730;10.088;2022-07-24T14:59:26;33.20;62.70
23251;DHT22;11794;49.730;10.088;2022-07-24T15:01:52;33.40;62.50
23251;DHT22;11794;49.730;10.088;2022-07-24T15:04:17;33.60;61.70
23251;DHT22;11794;49.730;10.088;2022-07-24T15:06:43;33.70;60.60
23251;DHT22;11794;49.730;10.088;2022-07-24T15:09:08;33.90;60.20
23251;DHT22;11794;49.730;10.088;2022-07-24T15:11:34;33.70;58.20
23251;DHT22;11794;49.730;10.088;2022-07-24T15:13:59;33.40;58.90
23251;DHT22;11794;49.730;10.088;2022-07-24T15:16:25;33.10;59.40
23251;DHT22;11794;49.730;10.088;2022-07-24T15:18:50;33.00;59.20
23251;DHT22;11794;49.730;10.088;2022-07-24T15:21:16;33.00;61.40
23251;DHT22;11794;49.730;10.088;2022-07-24T15:23:41;33.20;60.40
23251;DHT22;11794;49.730;10.088;2022-07-24T15:26:07;33.20;59.40
23251;DHT22;11794;49.730;10.088;2022-07-24T15:28:32;33.40;59.30
23251;DHT22;11794;49.730;10.088;2022-07-24T15:30:58;33.30;59.90
23251;DHT22;11794;49.730;10.088;2022-07-24T15:33:24;33.20;58.20
23251;DHT22;11794;49.730;10.088;2022-07-24T15:35:49;33.10;58.80
23251;DHT22;11794;49.730;10.088;2022-07-24T15:38:15;32.60;60.10
23251;DHT22;11794;49.730;10.088;2022-07-24T15:40:43;32.40;60.00
23251;DHT22;11794;49.730;10.088;2022-07-24T15:43:09;32.30;60.00